createdAt,value
2023-04-11T00:04:25.626Z,7.80
2023-04-11T00:09:27.724Z,7.70
2023-04-11T00:14:32.446Z,8.00
2023-04-11T00:19:34.418Z,8.10
2023-04-11T00:24:36.309Z,8.10
2023-04-11T00:29:38.154Z,8.10
2023-04-11T00:34:41.160Z,8.00
2023-04-11T00:39:42.848Z,8.10
2023-04-11T00:44:45.135Z,8.40
2023-04-11T00:49:47.134Z,8.40
2023-04-11T00:54:48.964Z,8.40
2023-04-11T00:59:51.598Z,8.50
2023-04-11T01:04:53.478Z,8.50
2023-04-11T01:09:55.651Z,8.50
2023-04-11T01:14:57.896Z,8.60
2023-04-11T01:20:01.144Z,8.80
2023-04-11T01:25:04.792Z,8.80
2023-04-11T01:30:07.520Z,8.80
2023-04-11T01:35:11.353Z,8.80
2023-04-11T01:40:21.444Z,8.80
2023-04-11T01:45:25.770Z,8.70
2023-04-11T01:50:27.913Z,8.70
2023-04-11T01:55:29.839Z,8.60
2023-04-11T02:00:32.605Z,8.50
2023-04-11T02:05:34.469Z,8.60
2023-04-11T02:10:36.383Z,8.50
2023-04-11T02:15:38.476Z,8.50
2023-04-11T02:20:43.229Z,8.50
2023-04-11T02:25:45.112Z,8.50
2023-04-11T02:30:46.871Z,8.40
2023-04-11T02:35:48.822Z,8.30
2023-04-11T02:40:50.850Z,8.40
2023-04-11T02:46:02.035Z,8.40
2023-04-11T02:51:11.673Z,8.30
2023-04-11T02:56:18.750Z,8.20
2023-04-11T03:01:23.054Z,8.20
2023-04-11T03:06:25.094Z,8.20
2023-04-11T03:11:27.013Z,8.10
2023-04-11T03:16:28.887Z,8.00
2023-04-11T03:21:31.569Z,7.90
2023-04-11T03:26:33.898Z,7.80
2023-04-11T03:31:35.981Z,7.60
2023-04-11T03:36:37.869Z,7.60
2023-04-11T03:41:39.668Z,7.40
2023-04-11T03:46:41.585Z,7.20
2023-04-11T03:51:43.347Z,7.10
2023-04-11T03:56:45.290Z,7.00
2023-04-11T04:01:47.080Z,6.90
2023-04-11T04:06:48.900Z,6.90
2023-04-11T04:11:51.038Z,6.80
2023-04-11T04:16:52.841Z,7.00
2023-04-11T04:21:58.088Z,7.00
2023-04-11T04:27:02.059Z,7.10
2023-04-11T04:32:11.003Z,7.10
2023-04-11T04:37:21.818Z,7.20
2023-04-11T04:42:26.147Z,7.30
2023-04-11T04:47:32.673Z,7.50
2023-04-11T04:52:34.843Z,7.70
2023-04-11T04:57:36.742Z,8.00
2023-04-11T05:02:40.913Z,8.30
2023-04-11T05:07:43.127Z,8.70
2023-04-11T05:12:44.897Z,9.30
2023-04-11T05:17:46.839Z,9.70
2023-04-11T05:22:50.277Z,10.00
2023-04-11T05:27:51.984Z,10.10
2023-04-11T05:32:53.917Z,9.90
2023-04-11T05:37:55.763Z,9.80
2023-04-11T05:42:57.832Z,9.70
2023-04-11T05:47:59.972Z,9.70
2023-04-11T05:53:02.267Z,9.80
2023-04-11T05:58:04.863Z,10.20
2023-04-11T06:03:07.975Z,10.80
2023-04-11T06:08:10.480Z,11.20
2023-04-11T06:13:12.363Z,11.40
2023-04-11T06:18:14.185Z,11.60
2023-04-11T06:23:16.203Z,11.80
2023-04-11T06:28:18.107Z,12.10
2023-04-11T06:33:20.474Z,12.40
2023-04-11T06:38:22.265Z,12.50
2023-04-11T06:43:23.990Z,12.90
2023-04-11T06:48:26.125Z,13.10
2023-04-11T06:53:27.876Z,14.20
2023-04-11T06:58:29.916Z,15.40
2023-04-11T07:03:31.966Z,16.10
2023-04-11T07:08:34.270Z,17.30
2023-04-11T07:13:36.017Z,17.90
2023-04-11T07:18:38.010Z,17.40
2023-04-11T07:23:40.869Z,18.00
2023-04-11T07:28:44.304Z,17.80
2023-04-11T07:33:45.994Z,19.10
2023-04-11T07:38:48.001Z,21.50
2023-04-11T07:43:49.783Z,18.40
2023-04-11T07:48:51.701Z,17.50
2023-04-11T07:53:54.511Z,17.60
2023-04-11T07:58:58.441Z,19.80
2023-04-11T08:04:00.656Z,20.60
2023-04-11T08:09:02.754Z,23.90
2023-04-11T08:14:04.551Z,25.20
2023-04-11T08:19:06.911Z,26.50
2023-04-11T08:24:08.973Z,24.60
2023-04-11T08:29:11.407Z,23.50
2023-04-11T08:34:13.427Z,23.10
2023-04-11T08:39:15.340Z,25.80
2023-04-11T08:44:17.269Z,24.30
2023-04-11T08:49:19.238Z,26.20
2023-04-11T08:54:21.165Z,25.70
2023-04-11T08:59:22.974Z,26.70
2023-04-11T09:04:42.539Z,28.60
2023-04-11T09:09:44.472Z,27.50
2023-04-11T09:14:46.302Z,28.80
2023-04-11T09:19:49.350Z,27.30
2023-04-11T09:25:02.814Z,28.60
2023-04-11T09:30:06.050Z,27.60
2023-04-11T09:35:09.311Z,27.30
2023-04-11T09:40:12.104Z,28.70
2023-04-11T09:45:21.266Z,25.90
2023-04-11T09:50:24.089Z,25.70
2023-04-11T09:55:26.141Z,24.20
2023-04-11T10:00:32.570Z,24.20
2023-04-11T10:05:34.811Z,25.50
2023-04-11T10:10:36.844Z,24.90
2023-04-11T10:15:58.722Z,24.70
2023-04-11T10:21:01.359Z,21.70
2023-04-11T10:26:08.423Z,21.00
2023-04-11T10:31:17.403Z,20.50
2023-04-11T10:36:20.810Z,19.50
2023-04-11T10:41:27.804Z,19.60
2023-04-11T10:46:29.886Z,19.30
2023-04-11T10:51:33.632Z,19.50
2023-04-11T10:56:45.928Z,19.20
2023-04-11T11:01:55.804Z,19.10
2023-04-11T11:06:59.110Z,18.70
2023-04-11T11:12:10.731Z,18.80
2023-04-11T11:17:17.126Z,19.00
2023-04-11T11:22:25.975Z,19.10
2023-04-11T11:27:28.463Z,19.60
2023-04-11T11:32:32.619Z,19.20
2023-04-11T11:37:34.580Z,19.10
2023-04-11T11:42:37.063Z,19.20
2023-04-11T11:47:43.716Z,19.20
2023-04-11T11:52:45.875Z,18.60
2023-04-11T11:57:48.959Z,18.60
2023-04-11T12:02:55.758Z,18.50
2023-04-11T12:07:59.943Z,18.90
2023-04-11T12:13:02.002Z,19.00
2023-04-11T12:18:07.138Z,18.90
2023-04-11T12:23:08.914Z,19.00
2023-04-11T12:28:11.597Z,19.10
2023-04-11T12:33:13.595Z,19.40
2023-04-11T12:38:17.825Z,19.40
2023-04-11T12:43:20.699Z,19.50
2023-04-11T12:48:22.443Z,19.90
2023-04-11T12:53:25.145Z,19.50
2023-04-11T12:58:28.820Z,19.60
2023-04-11T13:03:30.689Z,19.80
2023-04-11T13:08:32.667Z,19.70
2023-04-11T13:13:34.700Z,19.70
2023-04-11T13:18:36.450Z,19.70
2023-04-11T13:23:38.199Z,19.70
2023-04-11T13:28:39.940Z,19.60
2023-04-11T13:33:42.942Z,19.60
2023-04-11T13:38:49.452Z,19.60
2023-04-11T13:43:52.405Z,19.20
2023-04-11T13:48:54.348Z,19.00
2023-04-11T13:53:56.490Z,18.80
2023-04-11T13:58:58.763Z,18.80
2023-04-11T14:04:02.382Z,18.80
2023-04-11T14:09:08.023Z,18.40
2023-04-11T14:14:09.838Z,18.30
2023-04-11T14:19:11.729Z,18.10
2023-04-11T14:24:13.526Z,17.90
2023-04-11T14:29:15.480Z,17.80
2023-04-11T14:34:18.573Z,17.70
2023-04-11T14:39:20.644Z,17.80
2023-04-11T14:44:22.372Z,17.90
2023-04-11T14:49:24.181Z,18.00
2023-04-11T14:54:26.605Z,18.10
2023-04-11T14:59:28.383Z,18.20
2023-04-11T15:04:30.474Z,18.10
2023-04-11T15:09:33.432Z,18.00
2023-04-11T15:14:35.338Z,18.00
2023-04-11T15:19:37.228Z,18.00
2023-04-11T15:24:39.079Z,17.90
2023-04-11T15:29:40.881Z,17.80
2023-04-11T15:34:42.837Z,17.70
2023-04-11T15:39:44.729Z,17.70
2023-04-11T15:44:46.613Z,17.50
2023-04-11T15:49:48.457Z,17.50
2023-04-11T15:54:50.581Z,17.40
2023-04-11T15:59:52.283Z,17.40
2023-04-11T16:04:55.273Z,17.30
2023-04-11T16:09:57.380Z,17.30
2023-04-11T16:14:59.160Z,17.20
2023-04-11T16:20:00.902Z,17.10
2023-04-11T16:25:06.745Z,17.10
2023-04-11T16:30:09.539Z,17.00
2023-04-11T16:35:11.490Z,16.90
2023-04-11T16:40:13.540Z,16.80
2023-04-11T16:45:15.628Z,16.50
2023-04-11T16:50:18.000Z,16.50
2023-04-11T16:55:20.021Z,16.30
2023-04-11T17:00:21.965Z,16.00
2023-04-11T17:05:24.036Z,15.70
2023-04-11T17:10:26.002Z,15.30
2023-04-11T17:15:27.877Z,14.90
2023-04-11T17:20:29.598Z,14.50
2023-04-11T17:25:31.974Z,14.10
2023-04-11T17:30:33.879Z,13.80
2023-04-11T17:35:35.933Z,13.60
2023-04-11T17:40:39.592Z,13.40
2023-04-11T17:45:42.888Z,13.20
2023-04-11T17:50:46.238Z,12.90
2023-04-11T17:55:48.779Z,12.70
2023-04-11T18:00:56.605Z,12.50
2023-04-11T18:05:59.853Z,12.30
2023-04-11T18:11:03.284Z,12.10
2023-04-11T18:16:05.383Z,12.00
2023-04-11T18:21:08.036Z,11.70
2023-04-11T18:26:09.929Z,11.50
2023-04-11T18:31:12.096Z,11.50
2023-04-11T18:36:13.941Z,11.60
2023-04-11T18:41:16.329Z,11.60
2023-04-11T18:46:18.291Z,11.50
2023-04-11T18:51:20.778Z,11.70
2023-04-11T18:56:22.799Z,11.80
2023-04-11T19:01:24.830Z,11.60
2023-04-11T19:06:26.826Z,11.30
2023-04-11T19:11:28.554Z,11.70
2023-04-11T19:16:31.266Z,12.00
2023-04-11T19:21:33.108Z,11.70
2023-04-11T19:26:35.139Z,11.50
2023-04-11T19:31:37.574Z,11.60
2023-04-11T19:36:39.501Z,11.70
2023-04-11T19:41:45.626Z,11.70
2023-04-11T19:46:47.412Z,11.80
2023-04-11T19:51:49.142Z,11.90
2023-04-11T19:56:53.925Z,11.90
2023-04-11T20:01:55.829Z,12.00
2023-04-11T20:07:00.768Z,11.90
2023-04-11T20:12:03.353Z,11.60
2023-04-11T20:17:06.073Z,11.30
2023-04-11T20:22:10.799Z,11.00
2023-04-11T20:27:12.481Z,10.90
2023-04-11T20:32:14.172Z,10.90
2023-04-11T20:37:18.357Z,10.90
2023-04-11T20:42:20.622Z,10.70
2023-04-11T20:47:22.336Z,10.60
2023-04-11T20:52:24.582Z,10.50
2023-04-11T20:57:30.035Z,10.70
2023-04-11T21:02:32.386Z,10.80
2023-04-11T21:07:35.791Z,10.70
2023-04-11T21:12:37.732Z,10.70
2023-04-11T21:17:39.617Z,10.70
2023-04-11T21:22:41.655Z,10.50
2023-04-11T21:27:43.692Z,10.40
2023-04-11T21:32:45.657Z,10.20
2023-04-11T21:37:49.249Z,10.00
2023-04-11T21:42:51.096Z,10.00
2023-04-11T21:47:52.985Z,9.90
2023-04-11T21:52:54.818Z,10.10
2023-04-11T21:57:56.822Z,10.30
2023-04-11T22:02:58.740Z,10.50
2023-04-11T22:08:14.903Z,10.70
2023-04-11T22:13:18.994Z,10.80
2023-04-11T22:18:27.139Z,10.90
2023-04-11T22:23:28.848Z,11.00
2023-04-11T22:28:30.661Z,11.10
2023-04-11T22:33:32.478Z,11.20
2023-04-11T22:38:35.195Z,11.20
2023-04-11T22:43:37.041Z,11.20
2023-04-11T22:48:38.814Z,11.20
2023-04-11T22:53:42.193Z,11.10
2023-04-11T22:58:46.063Z,11.10
2023-04-11T23:03:48.025Z,11.10
2023-04-11T23:08:49.906Z,11.20
2023-04-11T23:13:52.846Z,11.10
2023-04-11T23:18:55.418Z,11.00
2023-04-11T23:23:57.370Z,10.90
2023-04-11T23:29:01.117Z,10.90
2023-04-11T23:34:02.820Z,10.90
2023-04-11T23:39:05.381Z,11.00
2023-04-11T23:44:07.254Z,10.90
2023-04-11T23:49:09.008Z,10.90
2023-04-11T23:54:10.780Z,10.90
2023-04-11T23:59:12.873Z,10.90
